createdAt,value
2019-05-17T00:01:50.392Z,13.40
2019-05-17T00:04:20.150Z,13.40
2019-05-17T00:06:50.522Z,13.40
2019-05-17T00:09:20.352Z,13.40
2019-05-17T00:11:50.172Z,13.40
2019-05-17T00:14:19.945Z,13.40
2019-05-17T00:16:49.753Z,13.40
2019-05-17T00:19:19.543Z,13.40
2019-05-17T00:21:49.374Z,13.40
2019-05-17T00:24:20.217Z,13.40
2019-05-17T00:26:50.615Z,13.40
2019-05-17T00:29:20.866Z,13.40
2019-05-17T00:31:50.676Z,13.40
2019-05-17T00:34:20.439Z,13.40
2019-05-17T00:36:50.274Z,13.40
2019-05-17T00:39:20.062Z,13.40
2019-05-17T00:41:49.842Z,13.40
2019-05-17T00:44:19.620Z,13.40
2019-05-17T00:46:49.415Z,13.40
2019-05-17T00:49:19.340Z,13.40
2019-05-17T00:51:49.189Z,13.40
2019-05-17T00:54:18.957Z,13.40
2019-05-17T00:56:49.167Z,13.40
2019-05-17T00:59:19.370Z,13.40
2019-05-17T01:01:49.184Z,13.40
2019-05-17T01:04:18.964Z,13.40
2019-05-17T01:06:49.151Z,13.40
2019-05-17T01:09:18.911Z,13.40
2019-05-17T01:11:48.728Z,13.40
2019-05-17T01:14:19.671Z,13.40
2019-05-17T01:16:49.477Z,13.40
2019-05-17T01:19:19.246Z,13.30
2019-05-17T01:21:49.061Z,13.40
2019-05-17T01:24:18.934Z,13.30
2019-05-17T01:26:48.774Z,13.40
2019-05-17T01:29:18.553Z,13.40
2019-05-17T01:31:48.520Z,13.40
2019-05-17T01:34:37.768Z,13.40
2019-05-17T01:37:08.119Z,13.30
2019-05-17T01:39:38.482Z,13.30
2019-05-17T01:42:08.763Z,13.30
2019-05-17T01:44:38.540Z,13.30
2019-05-17T01:47:08.786Z,13.30
2019-05-17T01:49:39.070Z,13.30
2019-05-17T01:52:08.906Z,13.30
2019-05-17T01:54:38.670Z,13.30
2019-05-17T01:57:08.953Z,13.30
2019-05-17T01:59:38.720Z,13.30
2019-05-17T02:02:11.474Z,13.30
2019-05-17T02:04:41.248Z,13.30
2019-05-17T02:07:11.054Z,13.20
2019-05-17T02:09:41.903Z,13.20
2019-05-17T02:12:12.359Z,13.20
2019-05-17T02:14:42.110Z,13.20
2019-05-17T02:17:11.950Z,13.20
2019-05-17T02:19:42.370Z,13.20
2019-05-17T02:22:12.717Z,13.20
2019-05-17T02:24:43.432Z,13.20
2019-05-17T02:27:13.277Z,13.20
2019-05-17T02:29:43.150Z,13.20
2019-05-17T02:32:13.054Z,13.20
2019-05-17T02:34:43.165Z,13.10
2019-05-17T02:37:14.047Z,13.10
2019-05-17T02:39:58.204Z,13.10
2019-05-17T02:42:16.229Z,13.10
2019-05-17T02:44:46.060Z,13.00
2019-05-17T02:47:16.368Z,13.00
2019-05-17T02:49:46.183Z,13.00
2019-05-17T02:52:16.913Z,13.00
2019-05-17T02:54:46.716Z,13.00
2019-05-17T02:57:16.491Z,13.00
2019-05-17T02:59:46.324Z,13.00
2019-05-17T03:02:16.459Z,13.00
2019-05-17T03:04:46.273Z,13.00
2019-05-17T03:07:16.052Z,13.00
2019-05-17T03:09:46.368Z,13.00
2019-05-17T03:12:16.192Z,12.90
2019-05-17T03:14:46.467Z,12.90
2019-05-17T03:17:16.715Z,12.90
2019-05-17T03:19:46.886Z,12.90
2019-05-17T03:22:16.694Z,12.90
2019-05-17T03:24:46.510Z,12.90
2019-05-17T03:27:16.337Z,12.90
2019-05-17T03:29:46.108Z,12.90
2019-05-17T03:32:17.649Z,12.90
2019-05-17T03:34:48.400Z,12.90
2019-05-17T03:37:19.116Z,12.90
2019-05-17T03:39:48.932Z,12.90
2019-05-17T03:42:22.493Z,12.90
2019-05-17T03:44:53.086Z,12.90
2019-05-17T03:47:22.831Z,12.90
2019-05-17T03:49:53.212Z,12.90
2019-05-17T03:52:24.294Z,12.90
2019-05-17T03:54:54.067Z,12.90
2019-05-17T03:57:24.361Z,12.90
2019-05-17T03:59:54.671Z,12.90
2019-05-17T04:02:24.474Z,12.90
2019-05-17T04:04:54.265Z,12.90
2019-05-17T04:07:24.269Z,12.90
2019-05-17T04:09:54.127Z,12.90
2019-05-17T04:12:24.440Z,12.90
2019-05-17T04:14:54.914Z,12.90
2019-05-17T04:17:25.115Z,12.90
2019-05-17T04:19:54.904Z,12.90
2019-05-17T04:22:24.656Z,12.90
2019-05-17T04:24:54.478Z,12.90
2019-05-17T04:27:24.252Z,12.90
2019-05-17T04:29:54.541Z,12.90
2019-05-17T04:32:25.276Z,12.90
2019-05-17T04:34:56.012Z,13.00
2019-05-17T04:37:25.837Z,13.00
2019-05-17T04:39:55.591Z,13.00
2019-05-17T04:42:25.859Z,13.00
2019-05-17T04:44:55.974Z,13.00
2019-05-17T04:47:25.740Z,13.00
2019-05-17T04:49:55.528Z,13.00
2019-05-17T04:52:25.336Z,13.00
2019-05-17T04:54:55.633Z,13.00
2019-05-17T04:57:25.725Z,13.00
2019-05-17T04:59:56.096Z,12.90
2019-05-17T05:02:26.931Z,12.90
2019-05-17T05:04:56.698Z,12.90
2019-05-17T05:07:26.688Z,12.90
2019-05-17T05:09:57.061Z,12.90
2019-05-17T05:12:27.383Z,12.90
2019-05-17T05:14:57.212Z,12.90
2019-05-17T05:17:27.041Z,12.90
2019-05-17T05:19:57.235Z,12.90
2019-05-17T05:22:27.049Z,12.90
2019-05-17T05:24:57.293Z,12.90
2019-05-17T05:27:27.451Z,12.90
2019-05-17T05:29:57.267Z,12.90
2019-05-17T05:32:27.108Z,12.90
2019-05-17T05:34:57.312Z,12.90
2019-05-17T05:37:27.117Z,12.90
2019-05-17T05:39:57.394Z,12.90
2019-05-17T05:42:27.194Z,12.90
2019-05-17T05:44:57.427Z,12.90
2019-05-17T05:47:27.256Z,13.00
2019-05-17T05:49:57.041Z,13.00
2019-05-17T05:52:26.849Z,13.00
2019-05-17T05:54:57.503Z,13.00
2019-05-17T05:57:27.722Z,13.00
2019-05-17T05:59:58.050Z,13.10
2019-05-17T06:02:27.899Z,13.10
2019-05-17T06:04:57.732Z,13.10
2019-05-17T06:07:27.971Z,13.10
2019-05-17T06:10:02.020Z,13.20
2019-05-17T06:12:32.227Z,13.20
2019-05-17T06:15:02.960Z,13.20
2019-05-17T06:17:32.962Z,13.20
2019-05-17T06:20:03.132Z,13.20
2019-05-17T06:22:32.958Z,13.20
2019-05-17T06:25:04.123Z,13.20
2019-05-17T06:27:34.699Z,13.20
2019-05-17T06:30:04.809Z,13.20
2019-05-17T06:32:35.053Z,13.30
2019-05-17T06:35:05.814Z,13.40
2019-05-17T06:37:36.222Z,13.40
2019-05-17T06:40:07.382Z,13.40
2019-05-17T06:42:41.101Z,13.50
2019-05-17T06:45:08.695Z,13.50
2019-05-17T06:47:38.530Z,13.60
2019-05-17T06:50:08.458Z,13.60
2019-05-17T06:52:38.647Z,13.70
2019-05-17T06:55:08.484Z,13.70
2019-05-17T06:57:38.821Z,13.80
2019-05-17T07:00:13.946Z,13.80
2019-05-17T07:02:40.299Z,13.80
2019-05-17T07:05:12.843Z,13.90
2019-05-17T07:07:42.667Z,13.90
2019-05-17T07:10:12.701Z,14.00
2019-05-17T07:12:54.843Z,14.00
2019-05-17T07:15:15.076Z,14.00
2019-05-17T07:17:44.878Z,14.10
2019-05-17T07:20:14.719Z,14.10
2019-05-17T07:22:45.040Z,14.20
2019-05-17T07:25:50.288Z,14.20
2019-05-17T07:28:20.123Z,14.20
2019-05-17T07:30:50.476Z,14.30
2019-05-17T07:33:20.402Z,14.40
2019-05-17T07:35:51.551Z,14.40
2019-05-17T07:38:21.918Z,14.40
2019-05-17T07:40:51.694Z,14.50
2019-05-17T07:43:21.527Z,14.60
2019-05-17T07:45:52.357Z,14.60
2019-05-17T07:48:22.176Z,14.70
2019-05-17T07:50:52.032Z,14.70
2019-05-17T07:53:22.263Z,14.80
2019-05-17T07:55:52.479Z,14.80
2019-05-17T07:58:22.870Z,14.80
2019-05-17T08:00:53.477Z,14.90
2019-05-17T08:03:24.928Z,14.90
2019-05-17T08:05:56.099Z,14.90
2019-05-17T08:08:25.918Z,15.00
2019-05-17T08:10:55.730Z,15.00
2019-05-17T08:13:30.536Z,15.00
2019-05-17T08:15:59.396Z,15.10
2019-05-17T08:18:29.617Z,15.10
2019-05-17T08:20:59.881Z,15.10
2019-05-17T08:23:30.508Z,15.10
2019-05-17T08:26:00.758Z,15.20
2019-05-17T08:28:31.192Z,15.20
2019-05-17T08:31:01.449Z,15.30
2019-05-17T08:33:32.002Z,15.30
2019-05-17T08:36:02.658Z,15.30
2019-05-17T08:38:32.619Z,15.40
2019-05-17T08:41:02.497Z,15.40
2019-05-17T08:43:44.425Z,15.40
2019-05-17T08:46:03.760Z,15.50
2019-05-17T08:48:34.273Z,15.60
2019-05-17T08:51:04.653Z,15.60
2019-05-17T08:53:34.555Z,15.60
2019-05-17T08:56:04.345Z,15.70
2019-05-17T08:58:34.326Z,15.70
2019-05-17T09:01:04.682Z,15.80
2019-05-17T09:03:34.517Z,15.80
2019-05-17T09:06:04.342Z,15.90
2019-05-17T09:08:34.140Z,15.90
2019-05-17T09:11:04.473Z,15.90
2019-05-17T09:13:35.180Z,16.00
2019-05-17T09:16:05.055Z,16.00
2019-05-17T09:18:35.359Z,16.10
2019-05-17T09:21:05.549Z,16.10
2019-05-17T09:23:39.495Z,16.10
2019-05-17T09:26:10.071Z,16.20
2019-05-17T09:28:40.606Z,16.20
2019-05-17T09:31:10.994Z,16.30
2019-05-17T09:33:40.776Z,16.30
2019-05-17T09:36:10.608Z,16.40
2019-05-17T09:38:40.894Z,16.30
2019-05-17T09:41:11.572Z,16.40
2019-05-17T09:43:41.400Z,16.50
2019-05-17T09:46:12.976Z,16.50
2019-05-17T09:48:46.829Z,16.50
2019-05-17T09:51:15.239Z,16.60
2019-05-17T09:53:45.078Z,16.60
2019-05-17T09:56:15.354Z,16.70
2019-05-17T09:58:45.840Z,16.70
2019-05-17T10:01:15.801Z,16.70
2019-05-17T10:03:46.112Z,16.80
2019-05-17T10:06:16.471Z,16.90
2019-05-17T10:08:49.314Z,16.90
2019-05-17T10:11:20.308Z,17.00
2019-05-17T10:13:50.464Z,17.00
2019-05-17T10:16:20.498Z,17.00
2019-05-17T10:18:50.875Z,17.10
2019-05-17T10:21:20.658Z,17.20
2019-05-17T10:23:50.867Z,17.20
2019-05-17T10:26:21.542Z,17.20
2019-05-17T10:28:51.773Z,17.20
2019-05-17T10:31:21.775Z,17.30
2019-05-17T10:33:51.593Z,17.40
2019-05-17T10:36:22.338Z,17.40
2019-05-17T10:38:52.179Z,17.40
2019-05-17T10:41:21.956Z,17.50
2019-05-17T10:43:51.948Z,17.60
2019-05-17T10:46:21.755Z,17.60
2019-05-17T10:48:51.625Z,17.70
2019-05-17T10:51:21.979Z,17.70
2019-05-17T10:53:51.836Z,17.80
2019-05-17T10:56:23.550Z,17.90
2019-05-17T10:58:53.204Z,18.00
2019-05-17T11:01:23.831Z,18.00
2019-05-17T11:03:54.018Z,18.10
2019-05-17T11:06:24.283Z,18.30
2019-05-17T11:08:54.818Z,18.40
2019-05-17T11:11:24.818Z,18.50
2019-05-17T11:13:55.056Z,18.60
2019-05-17T11:16:24.891Z,18.70
2019-05-17T11:18:55.102Z,18.80
2019-05-17T11:21:25.015Z,18.90
2019-05-17T11:23:55.830Z,18.90
2019-05-17T11:26:26.137Z,19.00
2019-05-17T11:28:56.180Z,19.10
2019-05-17T11:31:26.140Z,19.10
2019-05-17T11:33:56.481Z,19.20
2019-05-17T11:36:26.289Z,19.20
2019-05-17T11:38:56.682Z,19.30
2019-05-17T11:41:26.482Z,19.30
2019-05-17T11:43:56.721Z,19.30
2019-05-17T11:46:35.891Z,19.40
2019-05-17T11:48:59.541Z,19.50
2019-05-17T11:51:29.342Z,19.60
2019-05-17T11:53:59.663Z,19.70
2019-05-17T11:56:30.120Z,19.80
2019-05-17T11:59:01.039Z,19.80
2019-05-17T12:01:30.825Z,19.90
2019-05-17T12:04:00.996Z,20.00
2019-05-17T12:06:31.900Z,20.10
2019-05-17T12:09:02.650Z,20.20
2019-05-17T12:11:32.966Z,20.40
2019-05-17T12:14:02.831Z,20.60
2019-05-17T12:16:33.065Z,20.70
2019-05-17T12:19:02.831Z,20.80
2019-05-17T12:21:35.194Z,20.90
2019-05-17T12:24:04.968Z,21.00
2019-05-17T12:26:35.281Z,21.00
2019-05-17T12:29:05.045Z,21.10
2019-05-17T12:31:35.070Z,21.20
2019-05-17T12:34:04.866Z,21.20
2019-05-17T12:36:34.869Z,21.30
2019-05-17T12:39:06.468Z,21.40
2019-05-17T12:41:36.284Z,21.40
2019-05-17T12:44:06.081Z,21.50
2019-05-17T12:46:36.386Z,21.50
2019-05-17T12:49:07.340Z,21.50
2019-05-17T12:51:37.135Z,21.50
2019-05-17T12:54:07.397Z,21.60
2019-05-17T12:56:37.227Z,21.80
2019-05-17T12:59:07.552Z,21.90
2019-05-17T13:01:37.705Z,22.00
2019-05-17T13:04:07.885Z,22.20
2019-05-17T13:06:38.197Z,22.40
2019-05-17T13:09:08.078Z,22.60
2019-05-17T13:11:38.474Z,22.80
2019-05-17T13:14:08.678Z,23.00
2019-05-17T13:16:39.024Z,23.20
2019-05-17T13:19:08.853Z,23.30
2019-05-17T13:21:39.814Z,23.50
2019-05-17T13:24:09.640Z,23.70
2019-05-17T13:26:40.426Z,23.90
2019-05-17T13:29:10.763Z,24.10
2019-05-17T13:31:41.212Z,24.20
2019-05-17T13:34:11.500Z,24.40
2019-05-17T13:36:42.727Z,24.50
2019-05-17T13:39:13.714Z,24.60
2019-05-17T13:41:44.041Z,24.70
2019-05-17T13:44:15.160Z,24.80
2019-05-17T13:46:45.842Z,24.90
2019-05-17T13:49:15.626Z,25.00
2019-05-17T13:51:45.811Z,25.20
2019-05-17T13:54:15.593Z,25.30
2019-05-17T13:56:45.465Z,25.40
2019-05-17T13:59:15.247Z,25.60
2019-05-17T14:01:45.544Z,25.70
2019-05-17T14:04:18.794Z,25.80
2019-05-17T14:06:48.624Z,25.90
2019-05-17T14:09:19.118Z,26.00
2019-05-17T14:11:48.989Z,26.10
2019-05-17T14:14:19.272Z,26.10
2019-05-17T14:16:49.159Z,26.20
2019-05-17T14:19:19.395Z,26.30
2019-05-17T14:21:50.271Z,26.30
2019-05-17T14:24:20.381Z,26.30
2019-05-17T14:26:50.279Z,26.40
2019-05-17T14:29:21.808Z,26.40
2019-05-17T14:31:51.719Z,26.40
2019-05-17T14:34:21.595Z,26.40
2019-05-17T14:36:51.475Z,26.40
2019-05-17T14:39:21.317Z,26.50
2019-05-17T14:41:51.123Z,26.50
2019-05-17T14:44:21.380Z,26.60
2019-05-17T14:46:54.347Z,26.70
2019-05-17T14:49:25.116Z,26.80
2019-05-17T14:51:55.461Z,26.90
2019-05-17T14:54:25.310Z,27.10
2019-05-17T14:56:55.564Z,27.30
2019-05-17T14:59:25.435Z,27.50
2019-05-17T15:01:55.202Z,27.60
2019-05-17T15:04:30.992Z,27.80
2019-05-17T15:07:00.864Z,27.90
2019-05-17T15:09:31.389Z,28.10
2019-05-17T15:12:01.466Z,28.20
2019-05-17T15:14:32.249Z,28.40
2019-05-17T15:17:02.178Z,28.50
2019-05-17T15:19:32.099Z,28.70
2019-05-17T15:22:01.942Z,28.80
2019-05-17T15:24:31.829Z,28.90
2019-05-17T15:27:05.807Z,29.00
2019-05-17T15:29:34.013Z,29.00
2019-05-17T15:32:04.476Z,29.20
2019-05-17T15:34:34.863Z,29.20
2019-05-17T15:37:04.987Z,29.30
2019-05-17T15:39:35.168Z,29.40
2019-05-17T15:42:05.361Z,29.40
2019-05-17T15:44:35.180Z,29.50
2019-05-17T15:47:05.381Z,29.50
2019-05-17T15:49:36.058Z,29.60
2019-05-17T15:52:06.366Z,29.60
2019-05-17T15:54:37.723Z,29.60
2019-05-17T15:57:07.579Z,29.60
2019-05-17T15:59:38.608Z,29.70
2019-05-17T16:02:08.920Z,29.70
2019-05-17T16:04:38.783Z,29.80
2019-05-17T16:07:08.553Z,29.80
2019-05-17T16:09:38.799Z,29.80
2019-05-17T16:12:08.590Z,29.90
2019-05-17T16:14:38.400Z,29.90
2019-05-17T16:17:08.213Z,30.00
2019-05-17T16:19:39.087Z,30.00
2019-05-17T16:22:09.021Z,30.00
2019-05-17T16:24:38.947Z,30.00
2019-05-17T16:27:09.032Z,30.00
2019-05-17T16:29:39.343Z,30.00
2019-05-17T16:32:09.164Z,30.00
2019-05-17T16:34:40.012Z,30.00
2019-05-17T16:37:10.412Z,30.00
2019-05-17T16:39:40.245Z,30.00
2019-05-17T16:42:10.069Z,30.10
2019-05-17T16:44:39.979Z,30.10
2019-05-17T16:47:10.371Z,30.00
2019-05-17T16:49:41.250Z,30.00
2019-05-17T16:52:11.537Z,29.80
2019-05-17T16:54:41.389Z,29.60
2019-05-17T16:57:11.199Z,29.40
2019-05-17T16:59:41.035Z,29.20
2019-05-17T17:02:10.956Z,29.00
2019-05-17T17:04:40.814Z,28.80
2019-05-17T17:07:11.146Z,28.60
2019-05-17T17:09:41.023Z,28.40
2019-05-17T17:12:11.371Z,28.20
2019-05-17T17:14:42.237Z,28.00
2019-05-17T17:17:13.443Z,27.90
2019-05-17T17:19:44.771Z,27.80
2019-05-17T17:22:15.594Z,27.70
2019-05-17T17:24:45.398Z,27.60
2019-05-17T17:27:15.263Z,27.50
2019-05-17T17:29:45.713Z,27.40
2019-05-17T17:32:21.420Z,27.30
2019-05-17T17:34:48.215Z,27.20
2019-05-17T17:37:18.072Z,27.10
2019-05-17T17:39:47.882Z,27.00
2019-05-17T17:42:18.165Z,26.90
2019-05-17T17:44:47.998Z,26.70
2019-05-17T17:47:17.837Z,26.60
2019-05-17T17:49:48.132Z,26.50
2019-05-17T17:52:18.020Z,26.40
2019-05-17T17:54:48.260Z,26.30
2019-05-17T17:57:19.126Z,26.20
2019-05-17T17:59:49.414Z,26.00
2019-05-17T18:02:19.271Z,26.00
2019-05-17T18:04:49.084Z,25.80
2019-05-17T18:07:19.144Z,25.70
2019-05-17T18:09:49.041Z,25.60
2019-05-17T18:12:18.915Z,25.50
2019-05-17T18:14:49.179Z,25.40
2019-05-17T18:17:19.072Z,25.30
2019-05-17T18:19:49.345Z,25.30
2019-05-17T18:22:20.226Z,25.10
2019-05-17T18:24:50.600Z,25.10
2019-05-17T18:27:21.503Z,25.00
2019-05-17T18:29:51.326Z,24.90
2019-05-17T18:32:21.622Z,24.80
2019-05-17T18:34:51.919Z,24.70
2019-05-17T18:37:21.854Z,24.60
2019-05-17T18:39:52.024Z,24.60
2019-05-17T18:42:22.193Z,24.50
2019-05-17T18:44:52.013Z,24.40
2019-05-17T18:47:22.448Z,24.30
2019-05-17T18:49:52.292Z,24.20
2019-05-17T18:52:22.477Z,24.20
2019-05-17T18:54:52.810Z,24.10
2019-05-17T18:57:22.652Z,24.00
2019-05-17T18:59:55.214Z,23.90
2019-05-17T19:02:25.421Z,23.80
2019-05-17T19:04:55.192Z,23.80
2019-05-17T19:07:25.036Z,23.70
2019-05-17T19:09:55.335Z,23.60
2019-05-17T19:12:25.143Z,23.60
2019-05-17T19:14:55.891Z,23.50
2019-05-17T19:17:26.249Z,23.40
2019-05-17T19:19:56.102Z,23.40
2019-05-17T19:22:26.302Z,23.30
2019-05-17T19:24:56.145Z,23.30
2019-05-17T19:27:26.012Z,23.20
2019-05-17T19:29:56.139Z,23.10
2019-05-17T19:32:26.430Z,23.00
2019-05-17T19:34:56.702Z,23.00
2019-05-17T19:37:26.474Z,22.90
2019-05-17T19:39:56.308Z,22.80
2019-05-17T19:42:26.273Z,22.80
2019-05-17T19:44:59.000Z,22.70
2019-05-17T19:47:29.114Z,22.70
2019-05-17T19:49:59.827Z,22.60
2019-05-17T19:52:29.634Z,22.50
2019-05-17T19:54:59.848Z,22.50
2019-05-17T19:57:29.986Z,22.40
2019-05-17T20:00:00.862Z,22.40
2019-05-17T20:02:30.655Z,22.30
2019-05-17T20:05:00.501Z,22.20
2019-05-17T20:07:38.014Z,22.20
2019-05-17T20:10:03.249Z,22.10
2019-05-17T20:12:33.068Z,22.00
2019-05-17T20:15:16.594Z,22.00
2019-05-17T20:17:34.614Z,21.90
2019-05-17T20:20:04.564Z,21.80
2019-05-17T20:22:34.773Z,21.80
2019-05-17T20:25:05.081Z,21.70
2019-05-17T20:27:34.892Z,21.60
2019-05-17T20:30:05.117Z,21.60
2019-05-17T20:32:35.453Z,21.50
2019-05-17T20:35:05.699Z,21.40
2019-05-17T20:37:36.112Z,21.40
2019-05-17T20:40:06.353Z,21.30
2019-05-17T20:42:36.148Z,21.30
2019-05-17T20:45:06.600Z,21.20
2019-05-17T20:47:36.379Z,21.10
2019-05-17T20:50:06.503Z,21.10
2019-05-17T20:52:36.831Z,21.00
2019-05-17T20:55:07.042Z,21.00
2019-05-17T20:57:37.514Z,20.90
2019-05-17T21:00:07.441Z,20.80
2019-05-17T21:02:38.153Z,20.80
2019-05-17T21:05:08.546Z,20.70
2019-05-17T21:07:38.815Z,20.70
2019-05-17T21:10:09.129Z,20.70
2019-05-17T21:12:38.889Z,20.60
2019-05-17T21:15:09.203Z,20.60
2019-05-17T21:17:39.079Z,20.50
2019-05-17T21:20:09.966Z,20.50
2019-05-17T21:22:40.219Z,20.40
2019-05-17T21:25:10.026Z,20.40
2019-05-17T21:27:39.850Z,20.30
2019-05-17T21:30:10.158Z,20.30
2019-05-17T21:32:39.999Z,20.30
2019-05-17T21:35:10.084Z,20.20
2019-05-17T21:37:40.880Z,20.20
2019-05-17T21:40:10.679Z,20.10
2019-05-17T21:42:41.030Z,20.10
2019-05-17T21:45:11.189Z,20.00
2019-05-17T21:47:47.661Z,20.00
2019-05-17T21:50:19.039Z,19.90
2019-05-17T21:52:48.848Z,19.90
2019-05-17T21:55:18.620Z,19.80
2019-05-17T21:57:48.937Z,19.70
2019-05-17T22:00:44.215Z,19.70
2019-05-17T22:03:14.017Z,19.70
2019-05-17T22:08:23.397Z,19.60
2019-05-17T22:10:53.520Z,19.50
2019-05-17T22:13:23.489Z,19.40
2019-05-17T22:15:54.405Z,19.40
2019-05-17T22:18:24.028Z,19.40
2019-05-17T22:20:53.612Z,19.30
2019-05-17T22:23:23.217Z,19.30
2019-05-17T22:25:53.360Z,19.30
2019-05-17T22:28:22.972Z,19.20
2019-05-17T22:30:53.259Z,19.20
2019-05-17T22:33:23.704Z,19.10
2019-05-17T22:35:53.834Z,19.10
2019-05-17T22:38:23.560Z,19.10
2019-05-17T22:40:53.164Z,19.00
2019-05-17T22:43:23.245Z,19.00
2019-05-17T22:45:52.833Z,19.00
2019-05-17T22:48:22.454Z,19.00
2019-05-17T22:50:52.461Z,18.90
2019-05-17T22:53:22.774Z,18.80
2019-05-17T22:55:52.345Z,18.80
2019-05-17T22:58:21.960Z,18.70
2019-05-17T23:00:51.526Z,18.70
2019-05-17T23:03:21.144Z,18.70
2019-05-17T23:05:51.182Z,18.60
2019-05-17T23:08:21.669Z,18.50
2019-05-17T23:10:51.977Z,18.40
2019-05-17T23:13:21.606Z,18.30
2019-05-17T23:16:09.653Z,18.20
2019-05-17T23:18:39.777Z,18.20
2019-05-17T23:21:09.481Z,18.10
2019-05-17T23:23:39.073Z,18.10
2019-05-17T23:26:08.685Z,18.10
2019-05-17T23:28:38.313Z,18.00
2019-05-17T23:31:08.333Z,18.00
2019-05-17T23:33:37.936Z,18.00
2019-05-17T23:36:08.325Z,18.00
2019-05-17T23:38:37.937Z,18.00
2019-05-17T23:41:07.846Z,17.90
2019-05-17T23:43:37.462Z,17.90
2019-05-17T23:46:07.020Z,17.90
2019-05-17T23:48:37.517Z,17.80
2019-05-17T23:51:07.103Z,17.80
2019-05-17T23:53:36.705Z,17.70
2019-05-17T23:56:06.281Z,17.60
2019-05-17T23:58:36.564Z,17.60
